sensor_id;sensor_type;location;lat;lon;timestamp;P1;durP1;ratioP1;P2;durP2;ratioP2
50225;SDS011;36113;50.742;6.432;2024-02-26T00:01:55;1.98;;;1.80;;
50225;SDS011;36113;50.742;6.432;2024-02-26T00:04:20;2.60;;;2.20;;
50225;SDS011;36113;50.742;6.432;2024-02-26T00:06:46;3.27;;;2.10;;
50225;SDS011;36113;50.742;6.432;2024-02-26T00:09:13;2.13;;;2.03;;
50225;SDS011;36113;50.742;6.432;2024-02-26T00:11:38;2.17;;;1.73;;
50225;SDS011;36113;50.742;6.432;2024-02-26T00:14:04;2.10;;;1.88;;
50225;SDS011;36113;50.742;6.432;2024-02-26T00:16:30;2.53;;;2.33;;
50225;SDS011;36113;50.742;6.432;2024-02-26T00:18:55;3.47;;;2.30;;
50225;SDS011;36113;50.742;6.432;2024-02-26T00:21:20;2.55;;;2.35;;
50225;SDS011;36113;50.742;6.432;2024-02-26T00:23:46;2.95;;;2.17;;
50225;SDS011;36113;50.742;6.432;2024-02-26T00:26:11;2.47;;;2.30;;
50225;SDS011;36113;50.742;6.432;2024-02-26T00:28:37;2.42;;;2.30;;
50225;SDS011;36113;50.742;6.432;2024-02-26T00:31:02;2.55;;;2.35;;
50225;SDS011;36113;50.742;6.432;2024-02-26T00:33:28;3.38;;;2.60;;
50225;SDS011;36113;50.742;6.432;2024-02-26T00:35:53;2.35;;;2.20;;
50225;SDS011;36113;50.742;6.432;2024-02-26T00:38:19;2.35;;;2.15;;
50225;SDS011;36113;50.742;6.432;2024-02-26T00:40:44;1.80;;;1.70;;
50225;SDS011;36113;50.742;6.432;2024-02-26T00:43:09;1.88;;;1.77;;
50225;SDS011;36113;50.742;6.432;2024-02-26T00:45:35;2.55;;;1.65;;
50225;SDS011;36113;50.742;6.432;2024-02-26T00:48:00;2.38;;;1.88;;
50225;SDS011;36113;50.742;6.432;2024-02-26T00:50:32;2.13;;;1.90;;
50225;SDS011;36113;50.742;6.432;2024-02-26T00:52:58;2.33;;;2.13;;
50225;SDS011;36113;50.742;6.432;2024-02-26T00:55:24;3.50;;;2.00;;
50225;SDS011;36113;50.742;6.432;2024-02-26T00:57:49;2.22;;;1.85;;
50225;SDS011;36113;50.742;6.432;2024-02-26T01:00:14;3.28;;;2.38;;
50225;SDS011;36113;50.742;6.432;2024-02-26T01:02:40;1.77;;;1.67;;
50225;SDS011;36113;50.742;6.432;2024-02-26T01:05:07;1.80;;;1.70;;
50225;SDS011;36113;50.742;6.432;2024-02-26T01:07:34;2.40;;;2.20;;
50225;SDS011;36113;50.742;6.432;2024-02-26T01:10:01;2.08;;;1.92;;
50225;SDS011;36113;50.742;6.432;2024-02-26T01:12:27;2.10;;;2.00;;
50225;SDS011;36113;50.742;6.432;2024-02-26T01:14:53;2.97;;;2.05;;
50225;SDS011;36113;50.742;6.432;2024-02-26T01:17:18;3.60;;;1.83;;
50225;SDS011;36113;50.742;6.432;2024-02-26T01:19:43;2.38;;;2.08;;
50225;SDS011;36113;50.742;6.432;2024-02-26T01:22:09;1.95;;;1.83;;
50225;SDS011;36113;50.742;6.432;2024-02-26T01:24:34;2.72;;;1.90;;
50225;SDS011;36113;50.742;6.432;2024-02-26T01:27:00;3.22;;;1.90;;
50225;SDS011;36113;50.742;6.432;2024-02-26T01:29:25;2.15;;;1.80;;
50225;SDS011;36113;50.742;6.432;2024-02-26T01:31:50;1.80;;;1.70;;
50225;SDS011;36113;50.742;6.432;2024-02-26T01:34:16;2.30;;;1.70;;
50225;SDS011;36113;50.742;6.432;2024-02-26T01:36:43;2.45;;;2.05;;
50225;SDS011;36113;50.742;6.432;2024-02-26T01:39:08;1.70;;;1.60;;
50225;SDS011;36113;50.742;6.432;2024-02-26T01:41:36;1.88;;;1.48;;
50225;SDS011;36113;50.742;6.432;2024-02-26T01:44:01;2.70;;;2.00;;
50225;SDS011;36113;50.742;6.432;2024-02-26T01:46:27;1.70;;;1.60;;
50225;SDS011;36113;50.742;6.432;2024-02-26T01:48:53;3.20;;;1.50;;
50225;SDS011;36113;50.742;6.432;2024-02-26T01:51:19;2.08;;;1.75;;
50225;SDS011;36113;50.742;6.432;2024-02-26T01:53:44;2.17;;;1.45;;
50225;SDS011;36113;50.742;6.432;2024-02-26T01:56:10;1.83;;;1.52;;
50225;SDS011;36113;50.742;6.432;2024-02-26T01:58:37;1.98;;;1.77;;
50225;SDS011;36113;50.742;6.432;2024-02-26T02:01:05;1.65;;;1.55;;
50225;SDS011;36113;50.742;6.432;2024-02-26T02:03:30;2.38;;;1.67;;
50225;SDS011;36113;50.742;6.432;2024-02-26T02:05:56;1.80;;;1.70;;
50225;SDS011;36113;50.742;6.432;2024-02-26T02:08:21;2.08;;;1.88;;
50225;SDS011;36113;50.742;6.432;2024-02-26T02:10:48;1.90;;;1.80;;
50225;SDS011;36113;50.742;6.432;2024-02-26T02:13:14;2.30;;;1.57;;
50225;SDS011;36113;50.742;6.432;2024-02-26T02:15:39;2.13;;;1.90;;
50225;SDS011;36113;50.742;6.432;2024-02-26T02:18:05;1.63;;;1.52;;
50225;SDS011;36113;50.742;6.432;2024-02-26T02:20:31;4.00;;;1.80;;
50225;SDS011;36113;50.742;6.432;2024-02-26T02:22:58;2.35;;;1.60;;
50225;SDS011;36113;50.742;6.432;2024-02-26T02:25:24;2.38;;;1.85;;
50225;SDS011;36113;50.742;6.432;2024-02-26T02:27:49;2.08;;;1.60;;
50225;SDS011;36113;50.742;6.432;2024-02-26T02:30:15;3.63;;;1.98;;
50225;SDS011;36113;50.742;6.432;2024-02-26T02:32:41;2.13;;;1.75;;
50225;SDS011;36113;50.742;6.432;2024-02-26T02:35:07;1.90;;;1.73;;
50225;SDS011;36113;50.742;6.432;2024-02-26T02:37:32;3.85;;;1.90;;
50225;SDS011;36113;50.742;6.432;2024-02-26T02:39:58;1.80;;;1.70;;
50225;SDS011;36113;50.742;6.432;2024-02-26T02:42:23;4.05;;;1.65;;
50225;SDS011;36113;50.742;6.432;2024-02-26T02:44:49;1.90;;;1.50;;
50225;SDS011;36113;50.742;6.432;2024-02-26T02:47:14;1.73;;;1.55;;
50225;SDS011;36113;50.742;6.432;2024-02-26T02:49:40;1.65;;;1.55;;
50225;SDS011;36113;50.742;6.432;2024-02-26T02:52:05;1.90;;;1.80;;
50225;SDS011;36113;50.742;6.432;2024-02-26T02:54:31;2.28;;;1.60;;
50225;SDS011;36113;50.742;6.432;2024-02-26T02:56:56;1.80;;;1.70;;
50225;SDS011;36113;50.742;6.432;2024-02-26T02:59:21;2.00;;;1.83;;
50225;SDS011;36113;50.742;6.432;2024-02-26T03:01:47;1.40;;;1.35;;
50225;SDS011;36113;50.742;6.432;2024-02-26T03:04:12;2.65;;;1.88;;
50225;SDS011;36113;50.742;6.432;2024-02-26T03:06:37;1.92;;;1.83;;
50225;SDS011;36113;50.742;6.432;2024-02-26T03:09:03;2.25;;;1.83;;
50225;SDS011;36113;50.742;6.432;2024-02-26T03:11:28;1.98;;;1.88;;
50225;SDS011;36113;50.742;6.432;2024-02-26T03:13:54;1.65;;;1.55;;
50225;SDS011;36113;50.742;6.432;2024-02-26T03:16:19;4.45;;;1.77;;
50225;SDS011;36113;50.742;6.432;2024-02-26T03:18:44;4.13;;;2.15;;
50225;SDS011;36113;50.742;6.432;2024-02-26T03:21:09;1.90;;;1.73;;
50225;SDS011;36113;50.742;6.432;2024-02-26T03:23:35;2.97;;;1.63;;
50225;SDS011;36113;50.742;6.432;2024-02-26T03:26:04;2.83;;;2.07;;
50225;SDS011;36113;50.742;6.432;2024-02-26T03:28:30;1.65;;;1.50;;
50225;SDS011;36113;50.742;6.432;2024-02-26T03:30:58;3.00;;;1.55;;
50225;SDS011;36113;50.742;6.432;2024-02-26T03:33:23;2.05;;;1.58;;
50225;SDS011;36113;50.742;6.432;2024-02-26T03:35:48;3.60;;;1.67;;
50225;SDS011;36113;50.742;6.432;2024-02-26T03:38:14;1.27;;;1.27;;
50225;SDS011;36113;50.742;6.432;2024-02-26T03:40:39;2.58;;;1.77;;
50225;SDS011;36113;50.742;6.432;2024-02-26T03:43:04;2.22;;;1.80;;
50225;SDS011;36113;50.742;6.432;2024-02-26T03:45:32;1.83;;;1.60;;
50225;SDS011;36113;50.742;6.432;2024-02-26T03:47:57;3.00;;;1.55;;
50225;SDS011;36113;50.742;6.432;2024-02-26T03:50:22;1.45;;;1.20;;
50225;SDS011;36113;50.742;6.432;2024-02-26T03:52:48;2.47;;;1.40;;
50225;SDS011;36113;50.742;6.432;2024-02-26T03:55:13;1.55;;;1.45;;
50225;SDS011;36113;50.742;6.432;2024-02-26T03:57:38;1.30;;;1.30;;
50225;SDS011;36113;50.742;6.432;2024-02-26T04:00:04;1.90;;;1.58;;
50225;SDS011;36113;50.742;6.432;2024-02-26T04:02:30;2.30;;;1.67;;
50225;SDS011;36113;50.742;6.432;2024-02-26T04:04:55;2.50;;;1.65;;
50225;SDS011;36113;50.742;6.432;2024-02-26T04:07:20;1.88;;;1.73;;
50225;SDS011;36113;50.742;6.432;2024-02-26T04:09:45;1.90;;;1.80;;
50225;SDS011;36113;50.742;6.432;2024-02-26T04:12:11;1.65;;;1.55;;
50225;SDS011;36113;50.742;6.432;2024-02-26T04:14:36;3.22;;;2.00;;
50225;SDS011;36113;50.742;6.432;2024-02-26T04:17:02;1.95;;;1.85;;
50225;SDS011;36113;50.742;6.432;2024-02-26T04:19:27;2.58;;;2.00;;
50225;SDS011;36113;50.742;6.432;2024-02-26T04:21:53;3.53;;;2.13;;
50225;SDS011;36113;50.742;6.432;2024-02-26T04:24:19;2.30;;;2.03;;
50225;SDS011;36113;50.742;6.432;2024-02-26T04:26:45;1.70;;;1.60;;
50225;SDS011;36113;50.742;6.432;2024-02-26T04:29:10;2.60;;;2.10;;
50225;SDS011;36113;50.742;6.432;2024-02-26T04:31:36;2.25;;;2.05;;
50225;SDS011;36113;50.742;6.432;2024-02-26T04:34:02;2.00;;;1.90;;
50225;SDS011;36113;50.742;6.432;2024-02-26T04:36:28;2.28;;;2.10;;
50225;SDS011;36113;50.742;6.432;2024-02-26T04:38:53;2.33;;;2.22;;
50225;SDS011;36113;50.742;6.432;2024-02-26T04:41:21;3.63;;;2.50;;
50225;SDS011;36113;50.742;6.432;2024-02-26T04:43:46;4.22;;;2.15;;
50225;SDS011;36113;50.742;6.432;2024-02-26T04:46:12;2.20;;;2.10;;
50225;SDS011;36113;50.742;6.432;2024-02-26T04:48:37;5.70;;;2.78;;
50225;SDS011;36113;50.742;6.432;2024-02-26T04:51:03;2.00;;;1.90;;
50225;SDS011;36113;50.742;6.432;2024-02-26T04:53:29;3.60;;;2.60;;
50225;SDS011;36113;50.742;6.432;2024-02-26T04:55:54;2.67;;;2.42;;
50225;SDS011;36113;50.742;6.432;2024-02-26T04:58:19;2.42;;;2.20;;
50225;SDS011;36113;50.742;6.432;2024-02-26T05:00:45;2.50;;;2.30;;
50225;SDS011;36113;50.742;6.432;2024-02-26T05:03:10;4.55;;;2.60;;
50225;SDS011;36113;50.742;6.432;2024-02-26T05:05:40;3.38;;;2.20;;
50225;SDS011;36113;50.742;6.432;2024-02-26T05:08:05;2.17;;;2.05;;
50225;SDS011;36113;50.742;6.432;2024-02-26T05:10:32;2.45;;;2.28;;
50225;SDS011;36113;50.742;6.432;2024-02-26T05:12:57;2.10;;;2.00;;
50225;SDS011;36113;50.742;6.432;2024-02-26T05:15:23;2.10;;;1.90;;
50225;SDS011;36113;50.742;6.432;2024-02-26T05:17:48;2.60;;;2.40;;
50225;SDS011;36113;50.742;6.432;2024-02-26T05:20:14;2.15;;;2.05;;
50225;SDS011;36113;50.742;6.432;2024-02-26T05:22:39;1.92;;;1.83;;
50225;SDS011;36113;50.742;6.432;2024-02-26T05:25:04;2.08;;;1.92;;
50225;SDS011;36113;50.742;6.432;2024-02-26T05:27:30;2.00;;;1.90;;
50225;SDS011;36113;50.742;6.432;2024-02-26T05:29:55;1.80;;;1.70;;
50225;SDS011;36113;50.742;6.432;2024-02-26T05:32:21;1.83;;;1.73;;
50225;SDS011;36113;50.742;6.432;2024-02-26T05:34:46;2.53;;;2.33;;
50225;SDS011;36113;50.742;6.432;2024-02-26T05:37:12;2.40;;;2.20;;
50225;SDS011;36113;50.742;6.432;2024-02-26T05:39:37;4.57;;;2.55;;
50225;SDS011;36113;50.742;6.432;2024-02-26T05:42:02;3.22;;;2.92;;
50225;SDS011;36113;50.742;6.432;2024-02-26T05:44:28;3.50;;;3.20;;
50225;SDS011;36113;50.742;6.432;2024-02-26T05:46:54;3.72;;;3.42;;
50225;SDS011;36113;50.742;6.432;2024-02-26T05:49:19;3.17;;;2.97;;
50225;SDS011;36113;50.742;6.432;2024-02-26T05:51:44;3.50;;;3.20;;
50225;SDS011;36113;50.742;6.432;2024-02-26T05:54:10;4.25;;;3.70;;
50225;SDS011;36113;50.742;6.432;2024-02-26T05:56:35;3.10;;;2.85;;
50225;SDS011;36113;50.742;6.432;2024-02-26T05:59:00;3.13;;;2.95;;
50225;SDS011;36113;50.742;6.432;2024-02-26T06:01:26;4.07;;;3.35;;
50225;SDS011;36113;50.742;6.432;2024-02-26T06:03:51;4.03;;;3.63;;
50225;SDS011;36113;50.742;6.432;2024-02-26T06:06:16;4.00;;;3.70;;
50225;SDS011;36113;50.742;6.432;2024-02-26T06:08:42;3.88;;;3.58;;
50225;SDS011;36113;50.742;6.432;2024-02-26T06:11:08;4.50;;;3.58;;
50225;SDS011;36113;50.742;6.432;2024-02-26T06:13:34;5.03;;;4.47;;
50225;SDS011;36113;50.742;6.432;2024-02-26T06:15:59;5.50;;;4.32;;
50225;SDS011;36113;50.742;6.432;2024-02-26T06:18:25;5.25;;;4.75;;
50225;SDS011;36113;50.742;6.432;2024-02-26T06:20:50;5.47;;;4.97;;
50225;SDS011;36113;50.742;6.432;2024-02-26T06:23:15;4.82;;;4.28;;
50225;SDS011;36113;50.742;6.432;2024-02-26T06:25:41;4.97;;;4.57;;
50225;SDS011;36113;50.742;6.432;2024-02-26T06:28:07;5.03;;;4.65;;
50225;SDS011;36113;50.742;6.432;2024-02-26T06:30:33;5.32;;;4.93;;
50225;SDS011;36113;50.742;6.432;2024-02-26T06:32:59;5.43;;;4.93;;
50225;SDS011;36113;50.742;6.432;2024-02-26T06:35:24;5.00;;;4.70;;
50225;SDS011;36113;50.742;6.432;2024-02-26T06:37:50;5.85;;;5.18;;
50225;SDS011;36113;50.742;6.432;2024-02-26T06:40:17;5.32;;;4.93;;
50225;SDS011;36113;50.742;6.432;2024-02-26T06:42:43;5.30;;;4.80;;
50225;SDS011;36113;50.742;6.432;2024-02-26T06:45:09;6.88;;;4.75;;
50225;SDS011;36113;50.742;6.432;2024-02-26T06:47:34;5.25;;;4.75;;
50225;SDS011;36113;50.742;6.432;2024-02-26T06:49:59;4.90;;;4.50;;
50225;SDS011;36113;50.742;6.432;2024-02-26T06:52:25;5.65;;;5.13;;
50225;SDS011;36113;50.742;6.432;2024-02-26T06:54:51;6.13;;;5.63;;
50225;SDS011;36113;50.742;6.432;2024-02-26T06:57:17;5.03;;;4.63;;
50225;SDS011;36113;50.742;6.432;2024-02-26T06:59:46;5.53;;;4.95;;
50225;SDS011;36113;50.742;6.432;2024-02-26T07:02:12;5.45;;;5.05;;
50225;SDS011;36113;50.742;6.432;2024-02-26T07:04:44;6.10;;;5.60;;
50225;SDS011;36113;50.742;6.432;2024-02-26T07:07:09;5.78;;;5.28;;
50225;SDS011;36113;50.742;6.432;2024-02-26T07:09:35;5.63;;;4.75;;
50225;SDS011;36113;50.742;6.432;2024-02-26T07:12:01;5.50;;;4.80;;
50225;SDS011;36113;50.742;6.432;2024-02-26T07:14:26;5.68;;;5.00;;
50225;SDS011;36113;50.742;6.432;2024-02-26T07:16:51;5.07;;;4.78;;
50225;SDS011;36113;50.742;6.432;2024-02-26T07:19:17;5.90;;;5.40;;
50225;SDS011;36113;50.742;6.432;2024-02-26T07:21:42;8.75;;;5.28;;
50225;SDS011;36113;50.742;6.432;2024-02-26T07:24:08;5.20;;;4.70;;
50225;SDS011;36113;50.742;6.432;2024-02-26T07:26:33;5.28;;;4.85;;
50225;SDS011;36113;50.742;6.432;2024-02-26T07:28:59;4.85;;;4.30;;
50225;SDS011;36113;50.742;6.432;2024-02-26T07:31:25;11.07;;;4.63;;
50225;SDS011;36113;50.742;6.432;2024-02-26T07:33:50;4.93;;;4.60;;
50225;SDS011;36113;50.742;6.432;2024-02-26T07:36:16;5.53;;;4.82;;
50225;SDS011;36113;50.742;6.432;2024-02-26T07:38:41;5.63;;;4.68;;
50225;SDS011;36113;50.742;6.432;2024-02-26T07:41:06;4.38;;;4.07;;
50225;SDS011;36113;50.742;6.432;2024-02-26T07:43:32;5.15;;;4.57;;
50225;SDS011;36113;50.742;6.432;2024-02-26T07:45:57;4.30;;;4.00;;
50225;SDS011;36113;50.742;6.432;2024-02-26T07:48:23;6.32;;;4.63;;
50225;SDS011;36113;50.742;6.432;2024-02-26T07:50:48;6.53;;;5.03;;
50225;SDS011;36113;50.742;6.432;2024-02-26T07:53:13;5.35;;;4.60;;
50225;SDS011;36113;50.742;6.432;2024-02-26T07:55:38;6.07;;;5.38;;
50225;SDS011;36113;50.742;6.432;2024-02-26T07:58:04;5.55;;;4.97;;
50225;SDS011;36113;50.742;6.432;2024-02-26T08:00:29;5.00;;;4.53;;
50225;SDS011;36113;50.742;6.432;2024-02-26T08:02:54;5.18;;;4.78;;
50225;SDS011;36113;50.742;6.432;2024-02-26T08:05:20;4.63;;;4.10;;
50225;SDS011;36113;50.742;6.432;2024-02-26T08:07:45;5.85;;;4.25;;
50225;SDS011;36113;50.742;6.432;2024-02-26T08:10:10;4.32;;;4.00;;
50225;SDS011;36113;50.742;6.432;2024-02-26T08:12:36;3.70;;;3.40;;
50225;SDS011;36113;50.742;6.432;2024-02-26T08:15:02;3.40;;;3.17;;
50225;SDS011;36113;50.742;6.432;2024-02-26T08:17:27;3.47;;;3.28;;
50225;SDS011;36113;50.742;6.432;2024-02-26T08:19:53;4.10;;;3.65;;
50225;SDS011;36113;50.742;6.432;2024-02-26T08:22:18;3.70;;;3.50;;
50225;SDS011;36113;50.742;6.432;2024-02-26T08:24:43;3.50;;;3.30;;
50225;SDS011;36113;50.742;6.432;2024-02-26T08:27:09;3.75;;;3.55;;
50225;SDS011;36113;50.742;6.432;2024-02-26T08:29:35;4.50;;;4.10;;
50225;SDS011;36113;50.742;6.432;2024-02-26T08:32:00;3.97;;;3.67;;
50225;SDS011;36113;50.742;6.432;2024-02-26T08:34:26;4.38;;;4.07;;
50225;SDS011;36113;50.742;6.432;2024-02-26T08:36:51;4.43;;;4.03;;
50225;SDS011;36113;50.742;6.432;2024-02-26T08:39:17;5.93;;;4.72;;
50225;SDS011;36113;50.742;6.432;2024-02-26T08:41:45;4.78;;;4.38;;
50225;SDS011;36113;50.742;6.432;2024-02-26T08:44:11;5.88;;;5.38;;
50225;SDS011;36113;50.742;6.432;2024-02-26T08:46:36;4.63;;;4.20;;
50225;SDS011;36113;50.742;6.432;2024-02-26T08:49:02;4.90;;;4.53;;
50225;SDS011;36113;50.742;6.432;2024-02-26T08:51:28;5.13;;;4.68;;
50225;SDS011;36113;50.742;6.432;2024-02-26T08:53:53;4.70;;;4.20;;
50225;SDS011;36113;50.742;6.432;2024-02-26T08:56:19;4.45;;;3.80;;
50225;SDS011;36113;50.742;6.432;2024-02-26T08:58:46;4.40;;;4.03;;
50225;SDS011;36113;50.742;6.432;2024-02-26T09:01:13;4.05;;;3.75;;
50225;SDS011;36113;50.742;6.432;2024-02-26T09:03:41;4.20;;;3.90;;
50225;SDS011;36113;50.742;6.432;2024-02-26T09:06:07;3.97;;;3.58;;
50225;SDS011;36113;50.742;6.432;2024-02-26T09:08:32;4.60;;;3.83;;
50225;SDS011;36113;50.742;6.432;2024-02-26T09:10:58;3.83;;;3.53;;
50225;SDS011;36113;50.742;6.432;2024-02-26T09:13:24;3.97;;;3.67;;
50225;SDS011;36113;50.742;6.432;2024-02-26T09:15:49;3.20;;;3.00;;
50225;SDS011;36113;50.742;6.432;2024-02-26T09:18:14;3.22;;;2.92;;
50225;SDS011;36113;50.742;6.432;2024-02-26T09:20:40;3.35;;;3.15;;
50225;SDS011;36113;50.742;6.432;2024-02-26T09:23:06;4.13;;;3.83;;
50225;SDS011;36113;50.742;6.432;2024-02-26T09:25:31;4.35;;;4.05;;
50225;SDS011;36113;50.742;6.432;2024-02-26T09:27:58;4.40;;;4.00;;
50225;SDS011;36113;50.742;6.432;2024-02-26T09:30:24;4.05;;;3.63;;
50225;SDS011;36113;50.742;6.432;2024-02-26T09:32:49;5.03;;;4.30;;
50225;SDS011;36113;50.742;6.432;2024-02-26T09:35:14;4.38;;;4.05;;
50225;SDS011;36113;50.742;6.432;2024-02-26T09:37:40;3.95;;;3.65;;
50225;SDS011;36113;50.742;6.432;2024-02-26T09:40:05;4.00;;;3.70;;
50225;SDS011;36113;50.742;6.432;2024-02-26T09:42:31;4.72;;;4.38;;
50225;SDS011;36113;50.742;6.432;2024-02-26T09:44:59;3.40;;;3.10;;
50225;SDS011;36113;50.742;6.432;2024-02-26T09:47:26;3.70;;;3.38;;
50225;SDS011;36113;50.742;6.432;2024-02-26T09:49:56;3.72;;;3.42;;
50225;SDS011;36113;50.742;6.432;2024-02-26T09:52:23;3.92;;;3.47;;
50225;SDS011;36113;50.742;6.432;2024-02-26T09:54:50;3.97;;;3.67;;
50225;SDS011;36113;50.742;6.432;2024-02-26T09:57:16;3.97;;;3.60;;
50225;SDS011;36113;50.742;6.432;2024-02-26T09:59:42;3.97;;;3.67;;
50225;SDS011;36113;50.742;6.432;2024-02-26T10:02:14;4.65;;;4.30;;
50225;SDS011;36113;50.742;6.432;2024-02-26T10:04:40;4.72;;;4.10;;
50225;SDS011;36113;50.742;6.432;2024-02-26T10:07:11;4.25;;;3.95;;
50225;SDS011;36113;50.742;6.432;2024-02-26T10:09:37;4.85;;;4.40;;
50225;SDS011;36113;50.742;6.432;2024-02-26T10:12:03;4.72;;;4.20;;
50225;SDS011;36113;50.742;6.432;2024-02-26T10:14:29;3.95;;;3.70;;
50225;SDS011;36113;50.742;6.432;2024-02-26T10:16:55;3.65;;;3.35;;
50225;SDS011;36113;50.742;6.432;2024-02-26T10:19:24;4.82;;;4.43;;
50225;SDS011;36113;50.742;6.432;2024-02-26T10:21:54;3.55;;;3.25;;
50225;SDS011;36113;50.742;6.432;2024-02-26T10:24:22;3.60;;;3.30;;
50225;SDS011;36113;50.742;6.432;2024-02-26T10:26:47;3.30;;;3.00;;
50225;SDS011;36113;50.742;6.432;2024-02-26T10:29:13;3.58;;;3.28;;
50225;SDS011;36113;50.742;6.432;2024-02-26T10:31:41;3.13;;;2.92;;
50225;SDS011;36113;50.742;6.432;2024-02-26T10:34:07;3.38;;;3.08;;
50225;SDS011;36113;50.742;6.432;2024-02-26T10:36:33;3.83;;;3.50;;
50225;SDS011;36113;50.742;6.432;2024-02-26T10:39:01;5.03;;;3.20;;
50225;SDS011;36113;50.742;6.432;2024-02-26T10:41:26;3.40;;;3.20;;
50225;SDS011;36113;50.742;6.432;2024-02-26T10:43:52;3.55;;;3.35;;
50225;SDS011;36113;50.742;6.432;2024-02-26T10:46:17;3.80;;;3.50;;
50225;SDS011;36113;50.742;6.432;2024-02-26T10:48:49;3.92;;;3.63;;
50225;SDS011;36113;50.742;6.432;2024-02-26T10:51:30;4.20;;;3.80;;
50225;SDS011;36113;50.742;6.432;2024-02-26T10:53:58;4.03;;;3.30;;
50225;SDS011;36113;50.742;6.432;2024-02-26T10:56:26;3.95;;;3.33;;
50225;SDS011;36113;50.742;6.432;2024-02-26T10:58:54;3.50;;;3.25;;
50225;SDS011;36113;50.742;6.432;2024-02-26T11:01:20;3.60;;;3.30;;
50225;SDS011;36113;50.742;6.432;2024-02-26T11:03:47;4.38;;;3.97;;
50225;SDS011;36113;50.742;6.432;2024-02-26T11:06:15;4.68;;;4.22;;
50225;SDS011;36113;50.742;6.432;2024-02-26T11:08:40;4.10;;;3.70;;
50225;SDS011;36113;50.742;6.432;2024-02-26T11:11:06;5.07;;;4.60;;
50225;SDS011;36113;50.742;6.432;2024-02-26T11:13:32;4.93;;;4.53;;
50225;SDS011;36113;50.742;6.432;2024-02-26T11:15:59;4.80;;;4.40;;
50225;SDS011;36113;50.742;6.432;2024-02-26T11:18:26;4.68;;;4.25;;
50225;SDS011;36113;50.742;6.432;2024-02-26T11:20:52;6.07;;;4.63;;
50225;SDS011;36113;50.742;6.432;2024-02-26T11:23:22;5.25;;;4.78;;
50225;SDS011;36113;50.742;6.432;2024-02-26T11:25:48;5.47;;;4.93;;
50225;SDS011;36113;50.742;6.432;2024-02-26T11:28:16;5.63;;;5.13;;
50225;SDS011;36113;50.742;6.432;2024-02-26T11:30:45;7.47;;;4.95;;
50225;SDS011;36113;50.742;6.432;2024-02-26T11:33:12;5.80;;;4.97;;
50225;SDS011;36113;50.742;6.432;2024-02-26T11:35:39;4.60;;;4.20;;
50225;SDS011;36113;50.742;6.432;2024-02-26T11:38:04;5.35;;;4.85;;
50225;SDS011;36113;50.742;6.432;2024-02-26T11:40:32;9.48;;;4.95;;
50225;SDS011;36113;50.742;6.432;2024-02-26T11:42:58;6.22;;;5.32;;
50225;SDS011;36113;50.742;6.432;2024-02-26T11:48:16;5.97;;;5.47;;
50225;SDS011;36113;50.742;6.432;2024-02-26T11:50:54;6.00;;;5.40;;
50225;SDS011;36113;50.742;6.432;2024-02-26T11:53:21;5.43;;;4.82;;
50225;SDS011;36113;50.742;6.432;2024-02-26T11:58:42;6.25;;;5.03;;
50225;SDS011;36113;50.742;6.432;2024-02-26T12:04:01;7.20;;;6.18;;
50225;SDS011;36113;50.742;6.432;2024-02-26T12:06:27;7.72;;;6.97;;
50225;SDS011;36113;50.742;6.432;2024-02-26T12:08:53;8.40;;;7.55;;
50225;SDS011;36113;50.742;6.432;2024-02-26T12:11:20;8.32;;;7.53;;
50225;SDS011;36113;50.742;6.432;2024-02-26T12:13:47;7.37;;;6.77;;
50225;SDS011;36113;50.742;6.432;2024-02-26T12:16:21;7.88;;;6.75;;
50225;SDS011;36113;50.742;6.432;2024-02-26T12:19:10;7.63;;;6.97;;
50225;SDS011;36113;50.742;6.432;2024-02-26T12:21:36;8.23;;;7.50;;
50225;SDS011;36113;50.742;6.432;2024-02-26T12:24:14;10.68;;;8.13;;
50225;SDS011;36113;50.742;6.432;2024-02-26T12:26:43;8.80;;;8.02;;
50225;SDS011;36113;50.742;6.432;2024-02-26T12:29:09;8.75;;;7.85;;
50225;SDS011;36113;50.742;6.432;2024-02-26T12:34:02;8.10;;;6.70;;
50225;SDS011;36113;50.742;6.432;2024-02-26T12:36:28;7.60;;;6.90;;
50225;SDS011;36113;50.742;6.432;2024-02-26T12:38:54;8.55;;;7.75;;
50225;SDS011;36113;50.742;6.432;2024-02-26T12:41:20;10.18;;;7.47;;
50225;SDS011;36113;50.742;6.432;2024-02-26T12:43:46;8.52;;;7.72;;
50225;SDS011;36113;50.742;6.432;2024-02-26T12:46:11;9.10;;;8.30;;
50225;SDS011;36113;50.742;6.432;2024-02-26T12:48:37;12.43;;;7.90;;
50225;SDS011;36113;50.742;6.432;2024-02-26T12:51:04;9.05;;;7.85;;
50225;SDS011;36113;50.742;6.432;2024-02-26T12:53:30;8.45;;;7.68;;
50225;SDS011;36113;50.742;6.432;2024-02-26T12:55:55;10.15;;;9.10;;
50225;SDS011;36113;50.742;6.432;2024-02-26T12:58:21;8.57;;;7.00;;
50225;SDS011;36113;50.742;6.432;2024-02-26T13:00:50;8.43;;;7.60;;
50225;SDS011;36113;50.742;6.432;2024-02-26T13:03:17;9.18;;;8.25;;
50225;SDS011;36113;50.742;6.432;2024-02-26T13:05:43;8.57;;;7.77;;
50225;SDS011;36113;50.742;6.432;2024-02-26T13:08:09;10.20;;;7.85;;
50225;SDS011;36113;50.742;6.432;2024-02-26T13:10:41;9.27;;;8.35;;
50225;SDS011;36113;50.742;6.432;2024-02-26T13:13:07;8.77;;;8.00;;
50225;SDS011;36113;50.742;6.432;2024-02-26T13:15:33;12.40;;;8.75;;
50225;SDS011;36113;50.742;6.432;2024-02-26T13:17:58;11.25;;;9.23;;
50225;SDS011;36113;50.742;6.432;2024-02-26T13:20:37;16.95;;;10.32;;
50225;SDS011;36113;50.742;6.432;2024-02-26T13:23:06;11.75;;;9.18;;
50225;SDS011;36113;50.742;6.432;2024-02-26T13:25:32;9.32;;;8.43;;
50225;SDS011;36113;50.742;6.432;2024-02-26T13:30:50;7.88;;;7.07;;
50225;SDS011;36113;50.742;6.432;2024-02-26T13:33:17;8.20;;;7.40;;
50225;SDS011;36113;50.742;6.432;2024-02-26T13:35:43;10.43;;;8.53;;
50225;SDS011;36113;50.742;6.432;2024-02-26T13:38:10;10.23;;;8.93;;
50225;SDS011;36113;50.742;6.432;2024-02-26T13:40:35;15.45;;;9.10;;
50225;SDS011;36113;50.742;6.432;2024-02-26T13:43:01;8.90;;;8.02;;
50225;SDS011;36113;50.742;6.432;2024-02-26T13:45:26;9.90;;;8.82;;
50225;SDS011;36113;50.742;6.432;2024-02-26T13:47:52;11.50;;;9.70;;
50225;SDS011;36113;50.742;6.432;2024-02-26T13:50:17;9.27;;;8.07;;
50225;SDS011;36113;50.742;6.432;2024-02-26T13:52:46;9.13;;;8.35;;
50225;SDS011;36113;50.742;6.432;2024-02-26T13:55:12;9.23;;;8.10;;
50225;SDS011;36113;50.742;6.432;2024-02-26T13:57:39;10.13;;;9.05;;
50225;SDS011;36113;50.742;6.432;2024-02-26T14:00:04;11.88;;;9.27;;
50225;SDS011;36113;50.742;6.432;2024-02-26T14:02:31;10.52;;;9.43;;
50225;SDS011;36113;50.742;6.432;2024-02-26T14:04:56;8.02;;;7.20;;
50225;SDS011;36113;50.742;6.432;2024-02-26T14:07:21;10.38;;;8.63;;
50225;SDS011;36113;50.742;6.432;2024-02-26T14:09:47;9.07;;;8.18;;
50225;SDS011;36113;50.742;6.432;2024-02-26T14:12:12;9.40;;;8.43;;
50225;SDS011;36113;50.742;6.432;2024-02-26T14:14:38;9.35;;;8.23;;
50225;SDS011;36113;50.742;6.432;2024-02-26T14:17:05;9.20;;;8.05;;
50225;SDS011;36113;50.742;6.432;2024-02-26T14:19:31;8.93;;;8.02;;
50225;SDS011;36113;50.742;6.432;2024-02-26T14:21:56;11.68;;;9.93;;
50225;SDS011;36113;50.742;6.432;2024-02-26T14:24:22;9.90;;;8.85;;
50225;SDS011;36113;50.742;6.432;2024-02-26T14:26:47;9.40;;;8.40;;
50225;SDS011;36113;50.742;6.432;2024-02-26T14:29:12;12.77;;;8.95;;
50225;SDS011;36113;50.742;6.432;2024-02-26T14:31:39;11.68;;;8.25;;
50225;SDS011;36113;50.742;6.432;2024-02-26T14:34:04;8.80;;;7.90;;
50225;SDS011;36113;50.742;6.432;2024-02-26T14:36:29;12.45;;;9.27;;
50225;SDS011;36113;50.742;6.432;2024-02-26T14:38:55;13.95;;;9.15;;
50225;SDS011;36113;50.742;6.432;2024-02-26T14:41:20;15.55;;;8.10;;
50225;SDS011;36113;50.742;6.432;2024-02-26T14:43:45;13.43;;;8.77;;
50225;SDS011;36113;50.742;6.432;2024-02-26T14:46:11;11.48;;;8.10;;
50225;SDS011;36113;50.742;6.432;2024-02-26T14:48:36;12.68;;;7.72;;
50225;SDS011;36113;50.742;6.432;2024-02-26T14:51:01;8.38;;;7.53;;
50225;SDS011;36113;50.742;6.432;2024-02-26T14:53:27;12.43;;;8.70;;